createdAt,value
2022-08-31T00:02:39.778Z,2.10
2022-08-31T00:05:07.441Z,1.67
2022-08-31T00:07:35.055Z,2.20
2022-08-31T00:10:14.178Z,2.35
2022-08-31T00:12:45.676Z,2.28
2022-08-31T00:15:15.512Z,2.20
2022-08-31T00:17:42.476Z,2.10
2022-08-31T00:20:32.658Z,2.03
2022-08-31T00:22:58.566Z,1.95
2022-08-31T00:25:25.237Z,2.45
2022-08-31T00:27:52.060Z,1.90
2022-08-31T00:30:18.681Z,2.05
2022-08-31T00:32:45.321Z,1.90
2022-08-31T00:35:14.794Z,2.30
2022-08-31T00:37:41.324Z,1.90
2022-08-31T00:40:09.164Z,2.10
2022-08-31T00:42:35.839Z,2.10
2022-08-31T00:45:02.500Z,2.20
2022-08-31T00:47:29.304Z,2.22
2022-08-31T00:49:55.910Z,2.28
2022-08-31T00:52:33.186Z,2.30
2022-08-31T00:55:12.255Z,2.10
2022-08-31T00:57:42.482Z,2.17
2022-08-31T01:00:13.058Z,2.22
2022-08-31T01:02:40.889Z,1.92
2022-08-31T01:05:10.220Z,2.20
2022-08-31T01:07:37.313Z,2.30
2022-08-31T01:10:04.420Z,2.10
2022-08-31T01:12:31.049Z,2.40
2022-08-31T01:14:57.836Z,2.22
2022-08-31T01:17:24.669Z,2.30
2022-08-31T01:20:01.428Z,2.13
2022-08-31T01:22:37.367Z,2.58
2022-08-31T01:25:04.660Z,1.98
2022-08-31T01:27:34.505Z,2.13
2022-08-31T01:30:04.000Z,2.17
2022-08-31T01:32:30.711Z,2.15
2022-08-31T01:34:57.344Z,2.58
2022-08-31T01:37:29.222Z,2.10
2022-08-31T01:39:56.230Z,2.33
2022-08-31T01:42:22.899Z,2.00
2022-08-31T01:44:59.904Z,2.30
2022-08-31T01:47:26.761Z,2.15
2022-08-31T01:49:53.529Z,2.08
2022-08-31T01:52:25.104Z,2.17
2022-08-31T01:54:56.027Z,2.28
2022-08-31T01:57:33.936Z,2.72
2022-08-31T02:00:22.155Z,2.20
2022-08-31T02:02:48.858Z,2.50
2022-08-31T02:05:15.836Z,2.40
2022-08-31T02:07:44.748Z,2.40
2022-08-31T02:10:11.401Z,2.28
2022-08-31T02:12:39.581Z,2.13
2022-08-31T02:15:08.404Z,2.10
2022-08-31T02:17:35.014Z,1.90
2022-08-31T02:20:06.433Z,1.90
2022-08-31T02:22:33.709Z,2.35
2022-08-31T02:25:00.234Z,1.88
2022-08-31T02:27:26.991Z,2.80
2022-08-31T02:29:53.843Z,2.28
2022-08-31T02:32:21.312Z,2.40
2022-08-31T02:34:49.054Z,1.88
2022-08-31T02:37:17.517Z,2.22
2022-08-31T02:39:44.294Z,2.38
2022-08-31T02:42:11.477Z,2.33
2022-08-31T02:44:38.935Z,2.50
2022-08-31T02:47:05.657Z,2.22
2022-08-31T02:50:03.556Z,2.50
2022-08-31T02:52:30.126Z,2.50
2022-08-31T02:54:56.729Z,2.10
2022-08-31T02:57:23.340Z,2.30
2022-08-31T02:59:49.969Z,2.25
2022-08-31T03:02:17.893Z,2.25
2022-08-31T03:04:44.748Z,2.28
2022-08-31T03:07:14.684Z,2.45
2022-08-31T03:09:45.117Z,2.33
2022-08-31T03:12:11.614Z,2.17
2022-08-31T03:14:38.896Z,2.35
2022-08-31T03:17:05.660Z,2.08
2022-08-31T03:19:34.498Z,2.28
2022-08-31T03:22:03.314Z,2.15
2022-08-31T03:24:31.227Z,2.58
2022-08-31T03:26:58.733Z,2.40
2022-08-31T03:29:25.660Z,2.05
2022-08-31T03:31:54.978Z,2.10
2022-08-31T03:34:22.332Z,2.50
2022-08-31T03:36:48.888Z,2.20
2022-08-31T03:39:15.506Z,2.25
2022-08-31T03:41:42.097Z,2.08
2022-08-31T03:44:09.143Z,2.00
2022-08-31T03:46:37.738Z,1.92
2022-08-31T03:49:07.623Z,1.90
2022-08-31T03:51:36.706Z,2.10
2022-08-31T03:54:03.862Z,1.85
2022-08-31T03:56:32.323Z,1.77
2022-08-31T03:58:58.887Z,1.90
2022-08-31T04:01:45.704Z,2.20
2022-08-31T04:04:31.118Z,2.15
2022-08-31T04:07:18.754Z,1.80
2022-08-31T04:10:06.935Z,1.80
2022-08-31T04:12:53.504Z,2.20
2022-08-31T04:15:42.259Z,1.83
2022-08-31T04:18:27.737Z,2.30
2022-08-31T04:20:54.290Z,2.05
2022-08-31T04:23:21.283Z,1.80
2022-08-31T04:25:52.335Z,2.08
2022-08-31T04:28:18.882Z,1.88
2022-08-31T04:30:45.592Z,1.75
2022-08-31T04:33:15.474Z,1.70
2022-08-31T04:35:42.113Z,2.10
2022-08-31T04:38:10.302Z,2.10
2022-08-31T04:40:40.848Z,1.90
2022-08-31T04:43:07.573Z,1.60
2022-08-31T04:45:34.236Z,1.65
2022-08-31T04:48:00.948Z,2.05
2022-08-31T04:50:27.599Z,2.13
2022-08-31T04:53:05.204Z,2.17
2022-08-31T04:55:31.969Z,1.95
2022-08-31T04:57:58.890Z,1.67
2022-08-31T05:00:25.893Z,1.60
2022-08-31T05:03:04.635Z,1.92
2022-08-31T05:05:38.002Z,1.35
2022-08-31T05:08:05.731Z,1.45
2022-08-31T05:10:33.038Z,1.60
2022-08-31T05:12:59.818Z,2.08
2022-08-31T05:15:26.527Z,1.70
2022-08-31T05:17:53.107Z,1.55
2022-08-31T05:20:20.181Z,1.70
2022-08-31T05:22:46.720Z,1.67
2022-08-31T05:25:13.517Z,1.73
2022-08-31T05:27:42.050Z,1.92
2022-08-31T05:30:11.053Z,1.90
2022-08-31T05:32:49.132Z,2.25
2022-08-31T05:35:15.672Z,1.80
2022-08-31T05:37:44.635Z,2.10
2022-08-31T05:40:11.815Z,2.13
2022-08-31T05:42:38.465Z,1.90
2022-08-31T05:45:05.434Z,1.98
2022-08-31T05:47:32.128Z,2.17
2022-08-31T05:49:59.018Z,2.08
2022-08-31T05:52:26.737Z,2.00
2022-08-31T05:54:54.680Z,2.03
2022-08-31T05:57:25.855Z,1.92
2022-08-31T05:59:53.601Z,2.47
2022-08-31T06:02:21.075Z,2.25
2022-08-31T06:04:48.448Z,2.08
2022-08-31T06:07:19.485Z,2.00
2022-08-31T06:09:52.721Z,2.30
2022-08-31T06:12:20.473Z,2.42
2022-08-31T06:14:51.241Z,2.58
2022-08-31T06:17:19.901Z,2.33
2022-08-31T06:19:47.010Z,2.35
2022-08-31T06:22:13.708Z,2.45
2022-08-31T06:24:40.503Z,2.30
2022-08-31T06:27:07.315Z,2.30
2022-08-31T06:29:36.345Z,2.00
2022-08-31T06:32:08.096Z,2.50
2022-08-31T06:34:38.885Z,2.78
2022-08-31T06:37:05.997Z,2.50
2022-08-31T06:39:38.884Z,2.40
2022-08-31T06:42:33.055Z,2.60
2022-08-31T06:45:03.165Z,2.42
2022-08-31T06:47:48.677Z,2.20
2022-08-31T06:50:17.798Z,2.28
2022-08-31T06:52:45.406Z,2.28
2022-08-31T06:55:23.415Z,2.20
2022-08-31T06:58:08.681Z,2.35
2022-08-31T07:00:53.885Z,3.00
2022-08-31T07:03:44.829Z,2.17
2022-08-31T07:06:18.755Z,2.40
2022-08-31T07:08:48.528Z,2.15
2022-08-31T07:11:18.678Z,2.30
2022-08-31T07:13:45.247Z,2.33
2022-08-31T07:16:14.277Z,2.20
2022-08-31T07:18:42.135Z,2.40
2022-08-31T07:21:20.992Z,2.22
2022-08-31T07:23:49.050Z,2.60
2022-08-31T07:26:18.810Z,2.28
2022-08-31T07:28:45.431Z,2.60
2022-08-31T07:31:17.387Z,2.70
2022-08-31T07:33:45.904Z,2.60
2022-08-31T07:36:14.337Z,2.47
2022-08-31T07:39:51.878Z,2.45
2022-08-31T07:42:29.744Z,2.22
2022-08-31T07:44:59.910Z,3.05
2022-08-31T07:47:29.006Z,2.92
2022-08-31T07:49:58.352Z,2.13
2022-08-31T07:52:54.134Z,2.47
2022-08-31T07:55:41.854Z,2.42
2022-08-31T07:58:22.119Z,2.47
2022-08-31T08:00:49.746Z,2.45
2022-08-31T08:03:16.692Z,2.63
2022-08-31T08:06:04.017Z,2.63
2022-08-31T08:08:37.558Z,2.97
2022-08-31T08:11:21.984Z,2.30
2022-08-31T08:14:12.367Z,2.60
2022-08-31T08:16:50.465Z,2.40
2022-08-31T08:19:30.834Z,2.40
2022-08-31T08:21:57.381Z,2.90
2022-08-31T08:24:29.257Z,2.60
2022-08-31T08:27:02.482Z,2.78
2022-08-31T08:29:48.924Z,2.83
2022-08-31T08:32:21.479Z,3.42
2022-08-31T08:34:48.087Z,2.38
2022-08-31T08:37:15.125Z,2.65
2022-08-31T08:39:45.031Z,3.15
2022-08-31T08:42:16.579Z,3.08
2022-08-31T08:44:44.014Z,3.10
2022-08-31T08:47:15.064Z,3.08
2022-08-31T08:49:55.895Z,2.58
2022-08-31T08:52:38.538Z,2.25
2022-08-31T08:55:09.168Z,2.70
2022-08-31T08:57:40.013Z,2.70
2022-08-31T09:00:20.049Z,3.78
2022-08-31T09:03:00.970Z,2.95
2022-08-31T09:05:55.374Z,2.70
2022-08-31T09:08:59.560Z,2.90
2022-08-31T09:11:35.579Z,3.08
2022-08-31T09:14:23.565Z,2.90
2022-08-31T09:17:15.840Z,2.90
2022-08-31T09:20:00.122Z,2.70
2022-08-31T09:22:28.342Z,2.72
2022-08-31T09:24:59.665Z,2.97
2022-08-31T09:28:00.120Z,2.75
2022-08-31T09:30:39.248Z,2.42
2022-08-31T09:33:06.517Z,2.58
2022-08-31T09:35:40.562Z,2.78
2022-08-31T09:38:37.878Z,2.42
2022-08-31T09:41:05.601Z,3.10
2022-08-31T09:43:37.421Z,2.70
2022-08-31T09:46:30.884Z,2.75
2022-08-31T09:48:59.330Z,2.88
2022-08-31T09:51:35.571Z,2.70
2022-08-31T09:54:29.888Z,3.10
2022-08-31T09:56:58.026Z,2.63
2022-08-31T09:59:38.499Z,2.65
2022-08-31T10:02:22.084Z,3.05
2022-08-31T10:05:06.075Z,2.92
2022-08-31T10:07:45.624Z,2.53
2022-08-31T10:10:20.427Z,2.97
2022-08-31T10:13:02.137Z,3.05
2022-08-31T10:15:39.377Z,2.72
2022-08-31T10:18:13.838Z,2.80
2022-08-31T10:20:49.370Z,2.83
2022-08-31T10:23:28.087Z,2.63
2022-08-31T10:25:59.950Z,3.00
2022-08-31T10:28:32.038Z,2.72
2022-08-31T10:31:02.526Z,2.95
2022-08-31T10:34:15.890Z,3.15
2022-08-31T10:36:43.296Z,2.85
2022-08-31T10:39:30.657Z,2.95
2022-08-31T10:41:57.711Z,2.97
2022-08-31T10:44:57.382Z,2.83
2022-08-31T10:47:33.929Z,2.97
2022-08-31T10:50:03.647Z,2.95
2022-08-31T10:52:33.951Z,3.05
2022-08-31T10:55:05.428Z,2.65
2022-08-31T10:57:38.170Z,3.10
2022-08-31T11:00:37.778Z,2.67
2022-08-31T11:03:07.245Z,2.97
2022-08-31T11:05:51.807Z,3.20
2022-08-31T11:08:49.873Z,2.55
2022-08-31T11:11:22.015Z,3.20
2022-08-31T11:14:17.085Z,2.75
2022-08-31T11:17:19.070Z,2.72
2022-08-31T11:19:54.461Z,2.83
2022-08-31T11:22:30.848Z,3.28
2022-08-31T11:25:03.600Z,2.40
2022-08-31T11:27:41.629Z,3.28
2022-08-31T11:30:27.712Z,2.97
2022-08-31T11:32:59.523Z,2.80
2022-08-31T11:36:17.088Z,3.40
2022-08-31T11:39:03.549Z,3.13
2022-08-31T11:41:46.459Z,2.80
2022-08-31T11:44:39.220Z,3.10
2022-08-31T11:47:35.573Z,3.60
2022-08-31T11:50:05.541Z,2.90
2022-08-31T11:52:42.991Z,3.17
2022-08-31T11:55:28.628Z,2.83
2022-08-31T11:58:07.414Z,3.30
2022-08-31T12:00:52.244Z,3.05
2022-08-31T12:03:45.609Z,3.92
2022-08-31T12:06:37.146Z,3.40
2022-08-31T12:09:29.177Z,3.00
2022-08-31T12:12:17.243Z,3.50
2022-08-31T12:14:51.114Z,3.70
2022-08-31T12:17:31.653Z,3.58
2022-08-31T12:20:09.408Z,3.17
2022-08-31T12:23:30.101Z,3.08
2022-08-31T12:26:22.193Z,3.85
2022-08-31T12:28:51.630Z,3.30
2022-08-31T12:31:19.134Z,3.33
2022-08-31T12:34:07.844Z,2.78
2022-08-31T12:36:36.060Z,2.75
2022-08-31T12:39:11.159Z,3.20
2022-08-31T12:41:41.426Z,3.00
2022-08-31T12:44:13.913Z,3.30
2022-08-31T12:46:57.662Z,3.30
2022-08-31T12:49:40.024Z,3.30
2022-08-31T12:52:31.824Z,2.90
2022-08-31T12:55:09.241Z,3.65
2022-08-31T12:57:51.728Z,3.72
2022-08-31T13:00:37.191Z,3.83
2022-08-31T13:03:17.314Z,3.30
2022-08-31T13:06:08.199Z,2.90
2022-08-31T13:08:38.785Z,2.95
2022-08-31T13:11:33.144Z,3.40
2022-08-31T13:16:59.797Z,3.45
2022-08-31T13:19:29.503Z,3.97
2022-08-31T13:21:59.301Z,3.65
2022-08-31T13:24:31.683Z,3.83
2022-08-31T13:27:09.121Z,3.70
2022-08-31T13:29:44.108Z,3.60
2022-08-31T13:32:32.180Z,4.45
2022-08-31T13:35:05.048Z,3.10
2022-08-31T13:37:38.537Z,2.80
2022-08-31T13:40:11.596Z,3.80
2022-08-31T13:42:46.732Z,3.17
2022-08-31T13:45:30.180Z,3.28
2022-08-31T13:48:01.398Z,3.45
2022-08-31T13:50:34.446Z,3.92
2022-08-31T13:53:44.157Z,3.65
2022-08-31T13:55:51.538Z,3.40
2022-08-31T13:58:32.273Z,3.33
2022-08-31T14:01:24.330Z,4.95
2022-08-31T14:03:58.800Z,3.80
2022-08-31T14:06:33.766Z,4.22
2022-08-31T14:09:07.614Z,3.20
2022-08-31T14:11:35.502Z,3.72
2022-08-31T14:14:07.289Z,5.38
2022-08-31T14:16:39.841Z,5.82
2022-08-31T14:19:11.989Z,3.67
2022-08-31T14:21:42.143Z,3.28
2022-08-31T14:24:12.265Z,2.90
2022-08-31T14:26:43.908Z,3.72
2022-08-31T14:29:15.504Z,4.80
2022-08-31T14:31:52.148Z,4.10
2022-08-31T14:34:30.317Z,5.60
2022-08-31T14:37:06.299Z,4.30
2022-08-31T14:39:36.089Z,3.22
2022-08-31T14:42:08.244Z,3.80
2022-08-31T14:44:40.167Z,3.45
2022-08-31T14:47:08.120Z,2.88
2022-08-31T14:49:36.638Z,4.05
2022-08-31T14:52:06.077Z,5.28
2022-08-31T14:54:36.880Z,3.28
2022-08-31T14:57:08.209Z,2.83
2022-08-31T14:59:35.694Z,3.80
2022-08-31T15:02:02.318Z,3.40
2022-08-31T15:04:31.593Z,3.10
2022-08-31T15:07:06.565Z,3.70
2022-08-31T15:09:37.366Z,3.55
2022-08-31T15:12:05.998Z,2.92
2022-08-31T15:14:36.841Z,2.95
2022-08-31T15:17:13.004Z,3.83
2022-08-31T15:19:47.827Z,3.25
2022-08-31T15:22:15.724Z,4.35
2022-08-31T15:24:45.188Z,4.03
2022-08-31T15:27:14.276Z,2.80
2022-08-31T15:29:46.597Z,3.08
2022-08-31T15:32:16.920Z,3.22
2022-08-31T15:34:49.864Z,2.80
2022-08-31T15:37:16.653Z,2.90
2022-08-31T15:39:48.756Z,3.05
2022-08-31T15:42:21.102Z,3.13
2022-08-31T15:44:58.209Z,3.00
2022-08-31T15:47:46.315Z,2.83
2022-08-31T15:50:12.916Z,5.85
2022-08-31T15:52:43.868Z,3.03
2022-08-31T15:55:23.257Z,4.53
2022-08-31T15:57:54.359Z,2.45
2022-08-31T16:02:55.158Z,8.75
2022-08-31T16:05:22.029Z,3.45
2022-08-31T16:07:51.202Z,3.45
2022-08-31T16:10:20.426Z,6.75
2022-08-31T16:12:47.760Z,2.58
2022-08-31T16:15:15.564Z,2.38
2022-08-31T16:17:42.454Z,3.28
2022-08-31T16:20:13.430Z,2.50
2022-08-31T16:22:43.103Z,2.70
2022-08-31T16:25:12.944Z,2.55
2022-08-31T16:27:40.838Z,2.60
2022-08-31T16:30:09.582Z,2.90
2022-08-31T16:32:36.194Z,2.58
2022-08-31T16:35:04.453Z,2.67
2022-08-31T16:37:32.057Z,2.97
2022-08-31T16:39:58.780Z,2.78
2022-08-31T16:42:25.491Z,2.40
2022-08-31T16:44:52.257Z,2.58
2022-08-31T16:47:19.207Z,2.35
2022-08-31T16:49:46.743Z,2.58
2022-08-31T16:52:26.417Z,2.60
2022-08-31T16:54:55.885Z,2.53
2022-08-31T16:57:28.459Z,2.90
2022-08-31T16:59:56.427Z,2.42
2022-08-31T17:02:23.898Z,2.70
2022-08-31T17:04:53.310Z,2.63
2022-08-31T17:07:21.705Z,2.50
2022-08-31T17:09:48.359Z,2.60
2022-08-31T17:12:17.472Z,3.03
2022-08-31T17:14:51.335Z,2.65
2022-08-31T17:17:21.140Z,2.45
2022-08-31T17:19:48.518Z,2.60
2022-08-31T17:22:23.467Z,2.60
2022-08-31T17:24:56.239Z,2.03
2022-08-31T17:27:23.898Z,2.15
2022-08-31T17:29:52.793Z,2.45
2022-08-31T17:32:21.844Z,2.67
2022-08-31T17:34:51.653Z,2.28
2022-08-31T17:37:22.984Z,2.33
2022-08-31T17:39:53.147Z,2.20
2022-08-31T17:42:26.746Z,2.13
2022-08-31T17:44:54.702Z,2.13
2022-08-31T17:47:23.137Z,2.25
2022-08-31T17:49:51.178Z,2.42
2022-08-31T17:52:20.556Z,1.98
2022-08-31T17:54:47.573Z,2.13
2022-08-31T17:57:15.929Z,1.88
2022-08-31T17:59:46.298Z,1.92
2022-08-31T18:02:16.055Z,1.80
2022-08-31T18:04:43.025Z,1.77
2022-08-31T18:07:09.769Z,2.28
2022-08-31T18:09:40.295Z,1.90
2022-08-31T18:12:07.783Z,1.80
2022-08-31T18:14:35.773Z,1.60
2022-08-31T18:17:03.886Z,1.63
2022-08-31T18:19:33.410Z,2.00
2022-08-31T18:22:01.310Z,1.95
2022-08-31T18:24:30.228Z,1.80
2022-08-31T18:26:58.239Z,2.00
2022-08-31T18:29:25.337Z,1.73
2022-08-31T18:31:53.993Z,1.90
2022-08-31T18:34:22.934Z,1.80
2022-08-31T18:36:52.320Z,1.95
2022-08-31T18:39:50.154Z,1.60
2022-08-31T18:42:32.302Z,1.85
2022-08-31T18:45:18.193Z,1.60
2022-08-31T18:48:07.194Z,1.52
2022-08-31T18:50:36.367Z,1.73
2022-08-31T18:53:07.425Z,1.38
2022-08-31T18:55:39.157Z,1.70
2022-08-31T18:58:05.766Z,1.80
2022-08-31T19:00:33.155Z,2.00
2022-08-31T19:03:01.740Z,1.33
2022-08-31T19:05:29.370Z,1.33
2022-08-31T19:07:58.101Z,1.50
2022-08-31T19:10:25.444Z,1.50
2022-08-31T19:12:52.591Z,1.55
2022-08-31T19:15:19.469Z,1.75
2022-08-31T19:17:49.297Z,1.33
2022-08-31T19:20:16.596Z,1.67
2022-08-31T19:22:43.362Z,1.75
2022-08-31T19:25:18.415Z,1.63
2022-08-31T19:27:50.143Z,1.88
2022-08-31T19:30:18.683Z,1.42
2022-08-31T19:32:45.538Z,1.70
2022-08-31T19:35:12.231Z,1.55
2022-08-31T19:37:39.296Z,1.30
2022-08-31T19:40:06.578Z,1.42
2022-08-31T19:42:41.226Z,1.52
2022-08-31T19:45:23.655Z,1.85
2022-08-31T19:47:50.968Z,2.00
2022-08-31T19:50:17.937Z,1.85
2022-08-31T19:52:44.880Z,1.60
2022-08-31T19:55:15.001Z,1.80
2022-08-31T19:57:43.351Z,1.70
2022-08-31T20:00:12.792Z,1.70
2022-08-31T20:02:42.223Z,1.35
2022-08-31T20:05:09.700Z,1.73
2022-08-31T20:07:36.401Z,1.52
2022-08-31T20:10:04.636Z,1.40
2022-08-31T20:12:31.351Z,1.33
2022-08-31T20:14:58.154Z,1.50
2022-08-31T20:17:25.338Z,1.20
2022-08-31T20:19:54.817Z,1.27
2022-08-31T20:22:23.819Z,1.40
2022-08-31T20:24:55.609Z,1.25
2022-08-31T20:27:22.377Z,1.60
2022-08-31T20:29:49.098Z,1.40
2022-08-31T20:32:15.827Z,1.65
2022-08-31T20:34:43.534Z,1.20
2022-08-31T20:37:10.652Z,1.30
2022-08-31T20:39:39.335Z,1.60
2022-08-31T20:42:07.762Z,1.45
2022-08-31T20:44:36.639Z,0.98
2022-08-31T20:47:27.314Z,1.50
2022-08-31T20:49:56.800Z,1.20
2022-08-31T20:52:30.899Z,1.35
2022-08-31T20:55:01.260Z,1.30
2022-08-31T20:57:32.870Z,1.48
2022-08-31T21:00:04.884Z,1.43
2022-08-31T21:02:33.383Z,1.40
2022-08-31T21:05:20.791Z,1.35
2022-08-31T21:07:47.659Z,1.42
2022-08-31T21:10:14.409Z,3.22
2022-08-31T21:12:41.531Z,1.48
2022-08-31T21:15:12.258Z,1.10
2022-08-31T21:17:40.651Z,1.13
2022-08-31T21:20:07.824Z,1.25
2022-08-31T21:22:35.102Z,1.45
2022-08-31T21:25:02.160Z,1.40
2022-08-31T21:27:29.596Z,1.20
2022-08-31T21:29:57.007Z,1.25
2022-08-31T21:32:24.677Z,1.00
2022-08-31T21:34:55.612Z,1.42
2022-08-31T21:37:22.287Z,1.27
2022-08-31T21:39:48.811Z,1.48
2022-08-31T21:42:15.524Z,1.52
2022-08-31T21:44:42.251Z,1.20
2022-08-31T21:47:14.858Z,1.02
2022-08-31T21:49:45.091Z,1.73
2022-08-31T21:52:12.457Z,1.17
2022-08-31T21:54:44.517Z,1.33
2022-08-31T21:57:12.763Z,1.25
2022-08-31T21:59:39.336Z,1.23
2022-08-31T22:02:11.576Z,1.60
2022-08-31T22:04:42.172Z,1.33
2022-08-31T22:07:09.695Z,1.30
2022-08-31T22:09:36.973Z,1.80
2022-08-31T22:12:06.552Z,1.35
2022-08-31T22:14:36.679Z,1.52
2022-08-31T22:17:05.623Z,1.20
2022-08-31T22:19:36.137Z,1.30
2022-08-31T22:22:06.932Z,1.10
2022-08-31T22:24:35.974Z,1.30
2022-08-31T22:27:07.209Z,1.30
2022-08-31T22:29:35.792Z,1.33
2022-08-31T22:32:08.754Z,1.30
2022-08-31T22:34:37.365Z,1.30
2022-08-31T22:37:04.751Z,1.02
2022-08-31T22:39:31.830Z,1.40
2022-08-31T22:42:01.358Z,1.30
2022-08-31T22:44:32.209Z,1.15
2022-08-31T22:46:59.211Z,1.20
2022-08-31T22:49:27.162Z,1.20
2022-08-31T22:51:54.332Z,1.40
2022-08-31T22:54:22.506Z,1.75
2022-08-31T22:56:49.602Z,1.30
2022-08-31T22:59:24.593Z,1.67
2022-08-31T23:01:54.774Z,1.63
2022-08-31T23:04:23.833Z,1.20
2022-08-31T23:06:51.709Z,1.25
2022-08-31T23:09:21.097Z,1.65
2022-08-31T23:11:49.525Z,1.30
2022-08-31T23:14:16.081Z,1.45
2022-08-31T23:16:45.230Z,1.25
2022-08-31T23:19:22.638Z,1.38
2022-08-31T23:21:52.977Z,1.40
2022-08-31T23:24:28.632Z,1.25
2022-08-31T23:27:03.026Z,1.67
2022-08-31T23:29:32.221Z,1.30
2022-08-31T23:32:00.795Z,1.52
2022-08-31T23:34:27.357Z,1.38
2022-08-31T23:36:55.518Z,1.50
2022-08-31T23:39:23.512Z,1.33
2022-08-31T23:41:50.306Z,1.60
2022-08-31T23:44:20.313Z,1.70
2022-08-31T23:46:47.175Z,1.40
2022-08-31T23:49:17.273Z,1.30
2022-08-31T23:51:44.314Z,1.67
2022-08-31T23:54:12.418Z,1.40
2022-08-31T23:56:40.728Z,1.52
2022-08-31T23:59:16.951Z,1.30
